Time;durP1;ratioP1;P1;durP2;ratioP2;P2;SDS_P1;SDS_P2;PMS_P1;PMS_P2;Temp;Humidity;BMP_temperature;BMP_pressure;BME280_temperature;BME280_humidity;BME280_pressure;Samples;Min_cycle;Max_cycle;Signal;HPM_P1;HPM_P2
2021/10/20 00:00:38;;;;;;;11.60;10.43;;;;;;;15.05;60.92;100353.94;5001887;27;97117;-81
2021/10/20 00:03:04;;;;;;;12.27;10.25;;;;;;;15.06;60.85;100357.44;5016653;28;97006;-82
2021/10/20 00:05:29;;;;;;;12.45;11.25;;;;;;;15.05;61.16;100356.56;4999564;27;101533;-82
2021/10/20 00:07:55;;;;;;;11.43;10.27;;;;;;;15.04;61.32;100357.53;5015380;28;100144;-82
2021/10/20 00:10:21;;;;;;;12.27;11.15;;;;;;;15.09;61.32;100350.19;5017509;27;97046;-82
2021/10/20 00:12:48;;;;;;;12.57;11.02;;;;;;;15.07;61.44;100354.72;5003818;27;97078;-81
2021/10/20 00:15:16;;;;;;;11.25;10.02;;;;;;;15.11;61.37;100353.59;5030302;27;98129;-82
2021/10/20 00:17:42;;;;;;;11.38;10.38;;;;;;;15.10;61.60;100351.06;5037019;27;97727;-82
2021/10/20 00:20:14;;;;;;;11.70;10.60;;;;;;;15.12;61.30;100341.25;5020203;27;97038;-82
2021/10/20 00:22:41;;;;;;;11.68;10.45;;;;;;;15.15;61.30;100341.97;5013624;28;98208;-81
2021/10/20 00:25:07;;;;;;;11.27;10.40;;;;;;;15.18;61.25;100332.97;5025083;28;97643;-82
2021/10/20 00:27:33;;;;;;;12.45;11.35;;;;;;;15.12;61.33;100336.81;5017564;27;101293;-82
2021/10/20 00:29:58;;;;;;;12.13;11.05;;;;;;;15.07;61.28;100314.22;5023854;27;96958;-82
2021/10/20 00:32:24;;;;;;;11.80;10.82;;;;;;;15.17;61.14;100320.72;5003650;28;97322;-82
2021/10/20 00:34:50;;;;;;;11.48;10.35;;;;;;;15.21;61.08;100316.94;5034228;27;97976;-82
2021/10/20 00:37:15;;;;;;;12.43;11.27;;;;;;;15.24;61.15;100310.66;5018258;27;97976;-81
2021/10/20 00:39:41;;;;;;;12.63;11.32;;;;;;;15.21;61.16;100302.88;5017268;28;97232;-82
2021/10/20 00:42:07;;;;;;;11.73;10.63;;;;;;;15.29;61.18;100290.09;5035525;27;97377;-82
2021/10/20 00:44:45;;;;;;;12.40;11.25;;;;;;;15.17;61.51;100284.53;5003631;27;101498;-82
2021/10/20 00:47:11;;;;;;;11.88;10.65;;;;;;;15.16;61.44;100266.97;5035810;27;98094;-81
2021/10/20 00:49:37;;;;;;;11.90;10.80;;;;;;;15.25;61.59;100278.84;5037592;27;96704;-82
2021/10/20 00:52:02;;;;;;;11.38;10.48;;;;;;;15.21;61.38;100279.94;5018464;27;98325;-81
2021/10/20 00:54:28;;;;;;;11.23;10.32;;;;;;;15.19;61.78;100275.69;5003156;27;101347;-82
2021/10/20 00:56:54;;;;;;;11.05;9.95;;;;;;;15.22;61.87;100279.03;5016356;28;101417;-81
2021/10/20 00:59:20;;;;;;;10.73;9.80;;;;;;;15.17;61.89;100271.31;5020271;27;97406;-81
2021/10/20 01:01:46;;;;;;;11.85;10.73;;;;;;;15.24;62.25;100279.78;5036726;27;96838;-82
2021/10/20 01:04:11;;;;;;;11.05;10.05;;;;;;;15.20;62.19;100272.09;5018881;27;101452;-81
2021/10/20 01:06:37;;;;;;;12.63;11.38;;;;;;;15.23;61.91;100259.56;5023301;27;101736;-82
2021/10/20 01:09:03;;;;;;;10.63;9.73;;;;;;;15.29;61.74;100261.03;5035889;27;97164;-82
2021/10/20 01:11:29;;;;;;;10.80;9.80;;;;;;;15.24;61.85;100263.94;5036837;27;97506;-82
2021/10/20 01:13:55;;;;;;;11.18;10.18;;;;;;;15.33;61.87;100276.66;5016294;28;101233;-82
2021/10/20 01:16:20;;;;;;;10.38;9.45;;;;;;;15.33;62.08;100271.34;5017758;27;98228;-82
2021/10/20 01:18:46;;;;;;;10.65;9.48;;;;;;;15.31;61.90;100264.44;5016385;28;97026;-82
2021/10/20 01:21:17;;;;;;;11.23;9.70;;;;;;;15.35;62.11;100268.63;4998983;27;97706;-82
2021/10/20 01:23:44;;;;;;;11.38;10.32;;;;;;;15.37;61.98;100272.88;5024144;27;101925;-82
2021/10/20 01:26:10;;;;;;;10.90;9.90;;;;;;;15.36;62.01;100270.34;5001574;27;100922;-81
2021/10/20 01:28:35;;;;;;;11.80;10.70;;;;;;;15.34;62.10;100266.91;5016322;28;96843;-82
2021/10/20 01:31:01;;;;;;;11.05;10.07;;;;;;;15.39;62.21;100263.09;5011626;27;96872;-82
2021/10/20 01:33:26;;;;;;;10.00;8.95;;;;;;;15.34;62.12;100261.63;5016279;28;101799;-82
2021/10/20 01:35:52;;;;;;;10.68;9.82;;;;;;;15.32;62.22;100250.28;5028880;27;97954;-82
2021/10/20 01:38:17;;;;;;;10.93;9.90;;;;;;;15.33;62.73;100252.84;5029110;27;97189;-82
2021/10/20 01:40:43;;;;;;;11.15;10.10;;;;;;;15.31;62.97;100245.94;5037315;27;96986;-82
2021/10/20 01:43:08;;;;;;;10.25;9.52;;;;;;;15.30;63.04;100241.56;5013120;27;101484;-82
2021/10/20 01:45:34;;;;;;;10.38;9.35;;;;;;;15.35;62.76;100236.88;5019941;27;98063;-82
2021/10/20 01:47:59;;;;;;;10.25;9.38;;;;;;;15.42;62.64;100237.38;5014263;28;97136;-82
2021/10/20 01:50:25;;;;;;;9.73;9.00;;;;;;;15.47;62.61;100238.00;5035037;27;97135;-82
2021/10/20 01:52:51;;;;;;;10.13;9.32;;;;;;;15.41;63.14;100239.19;5014077;27;98202;-82
2021/10/20 01:55:17;;;;;;;10.90;10.00;;;;;;;15.42;63.05;100238.25;5035595;27;98444;-82
2021/10/20 01:57:43;;;;;;;10.32;9.40;;;;;;;15.44;63.13;100241.66;5015321;28;97127;-81
2021/10/20 02:00:10;;;;;;;10.88;8.73;;;;;;;15.32;63.39;100240.53;5030838;27;97103;-82
2021/10/20 02:02:39;;;;;;;10.45;9.65;;;;;;;15.28;63.50;100225.78;4999561;28;101302;-82
2021/10/20 02:05:12;;;;;;;9.82;8.93;;;;;;;15.40;63.46;100235.69;4994010;27;101500;-82
2021/10/20 02:07:38;;;;;;;9.93;9.18;;;;;;;15.40;63.25;100233.03;5018009;27;96833;-82
2021/10/20 02:10:12;;;;;;;9.05;8.45;;;;;;;15.35;63.34;100226.31;5018978;27;97150;-82
2021/10/20 02:12:38;;;;;;;9.55;8.73;;;;;;;15.39;63.22;100217.28;5031244;27;98514;-82
2021/10/20 02:15:04;;;;;;;11.35;9.32;;;;;;;15.50;63.29;100211.38;5022936;27;98265;-82
2021/10/20 02:17:30;;;;;;;11.13;10.05;;;;;;;15.43;63.33;100215.31;5026650;27;97068;-82
2021/10/20 02:19:56;;;;;;;10.50;9.63;;;;;;;15.39;63.48;100218.13;5001917;27;97178;-82
2021/10/20 02:22:21;;;;;;;10.38;9.57;;;;;;;15.39;63.31;100209.34;5001435;27;100112;-82
2021/10/20 02:24:47;;;;;;;11.57;9.57;;;;;;;15.44;63.28;100206.41;5002574;27;100930;-82
2021/10/20 02:27:12;;;;;;;10.23;9.40;;;;;;;15.40;63.77;100211.03;5034877;27;96931;-82
2021/10/20 02:29:38;;;;;;;12.57;9.68;;;;;;;15.42;63.96;100206.53;5019972;27;96872;-82
2021/10/20 02:32:04;;;;;;;10.40;9.45;;;;;;;15.39;63.77;100194.31;5000968;28;101652;-82
2021/10/20 02:34:29;;;;;;;10.27;9.50;;;;;;;15.35;64.05;100199.84;4999129;27;101137;-82
2021/10/20 02:36:55;;;;;;;10.65;9.80;;;;;;;15.37;63.90;100200.63;5001396;28;97106;-81
2021/10/20 02:39:21;;;;;;;10.23;9.32;;;;;;;15.31;64.28;100199.19;5012733;27;97508;-82
2021/10/20 02:41:47;;;;;;;10.50;9.60;;;;;;;15.25;64.25;100196.88;5034981;27;101504;-82
2021/10/20 02:44:12;;;;;;;10.10;9.30;;;;;;;15.28;64.45;100194.06;5001334;27;100999;-82
2021/10/20 02:46:39;;;;;;;10.02;9.23;;;;;;;15.33;64.51;100191.16;5018423;27;96975;-82
2021/10/20 02:49:04;;;;;;;11.50;9.70;;;;;;;15.32;64.40;100187.66;5018441;27;96875;-82
2021/10/20 02:51:30;;;;;;;10.18;9.25;;;;;;;15.30;64.64;100183.38;5018010;27;97722;-82
2021/10/20 02:53:57;;;;;;;9.52;8.80;;;;;;;15.19;64.99;100178.72;5018504;27;97804;-82
2021/10/20 02:56:23;;;;;;;10.15;9.35;;;;;;;15.14;65.46;100180.75;4998221;28;96800;-82
2021/10/20 02:58:48;;;;;;;9.77;9.10;;;;;;;15.12;65.70;100180.81;5019159;27;96844;-82
2021/10/20 03:01:14;;;;;;;10.80;9.85;;;;;;;15.10;65.97;100177.44;5004243;27;101016;-82
2021/10/20 03:03:39;;;;;;;10.52;9.65;;;;;;;15.11;65.84;100173.84;5023072;27;98423;-82
2021/10/20 03:06:05;;;;;;;10.23;9.23;;;;;;;15.09;66.04;100159.84;5022281;27;98589;-81
2021/10/20 03:08:31;;;;;;;10.35;9.57;;;;;;;15.18;65.69;100171.69;5038269;27;97672;-82
2021/10/20 03:10:56;;;;;;;10.52;9.75;;;;;;;15.07;66.12;100174.09;5038821;27;97706;-81
2021/10/20 03:13:22;;;;;;;10.32;9.60;;;;;;;15.01;66.41;100164.72;5021511;27;97764;-82
2021/10/20 03:15:48;;;;;;;10.20;9.50;;;;;;;14.88;66.90;100159.22;5025025;27;96941;-82
2021/10/20 03:18:13;;;;;;;11.25;10.15;;;;;;;14.89;66.97;100154.78;5037472;27;97057;-81
2021/10/20 03:20:39;;;;;;;11.10;10.20;;;;;;;14.98;67.01;100162.25;5039079;27;97708;-82
2021/10/20 03:23:04;;;;;;;10.82;9.95;;;;;;;14.92;66.88;100154.63;5020483;27;98794;-81
2021/10/20 03:25:30;;;;;;;10.95;9.68;;;;;;;14.92;67.09;100157.28;5022129;27;97394;-82
2021/10/20 03:27:55;;;;;;;11.57;10.43;;;;;;;15.00;66.94;100160.34;5000927;28;97064;-81
2021/10/20 03:30:22;;;;;;;10.32;9.52;;;;;;;14.84;67.39;100155.06;5003329;27;101309;-82
2021/10/20 03:32:48;;;;;;;10.45;9.65;;;;;;;14.94;67.05;100158.03;5001184;28;101541;-82
2021/10/20 03:35:17;;;;;;;10.88;9.85;;;;;;;14.83;67.48;100152.50;5021318;27;97230;-81
2021/10/20 03:37:42;;;;;;;10.73;9.80;;;;;;;14.79;67.52;100146.53;4996630;28;96918;-81
2021/10/20 03:40:08;;;;;;;11.45;10.52;;;;;;;14.80;67.71;100150.00;5010832;28;101009;-82
2021/10/20 03:42:34;;;;;;;11.80;10.90;;;;;;;14.85;67.64;100151.47;5003888;27;101472;-82
2021/10/20 03:45:00;;;;;;;11.80;10.90;;;;;;;14.76;67.91;100151.13;5012291;27;96645;-81
2021/10/20 03:47:26;;;;;;;12.20;11.20;;;;;;;14.84;67.71;100149.78;5003234;27;97275;-82
2021/10/20 03:49:52;;;;;;;12.20;11.30;;;;;;;14.73;68.50;100149.50;5000728;28;103604;-81
2021/10/20 03:52:18;;;;;;;12.85;11.65;;;;;;;14.71;68.26;100159.28;4998538;27;101183;-81
2021/10/20 03:54:43;;;;;;;12.07;11.07;;;;;;;14.69;68.31;100153.25;5001400;28;96612;-81
2021/10/20 03:57:09;;;;;;;12.90;11.55;;;;;;;14.68;68.62;100160.31;5009716;28;97593;-81
2021/10/20 03:59:35;;;;;;;10.82;9.93;;;;;;;14.66;68.61;100153.38;5034149;28;98515;-82
2021/10/20 04:02:00;;;;;;;10.05;9.20;;;;;;;14.53;68.89;100153.22;5014663;27;101122;-82
2021/10/20 04:04:26;;;;;;;10.65;8.95;;;;;;;14.55;68.67;100148.69;5021611;27;97262;-82
2021/10/20 04:06:52;;;;;;;11.80;9.23;;;;;;;14.72;68.24;100153.09;5001221;28;97178;-82
2021/10/20 04:09:17;;;;;;;9.65;8.63;;;;;;;14.64;68.29;100144.72;5014276;28;101749;-82
2021/10/20 04:11:43;;;;;;;9.73;8.55;;;;;;;14.60;68.49;100146.69;5013546;27;101084;-82
2021/10/20 04:14:09;;;;;;;9.18;8.35;;;;;;;14.53;68.40;100141.78;5017844;27;97143;-81
2021/10/20 04:16:34;;;;;;;9.85;8.88;;;;;;;14.57;68.60;100143.31;5038070;27;97179;-81
2021/10/20 04:19:00;;;;;;;9.75;8.73;;;;;;;14.55;68.31;100154.00;5036906;27;97968;-82
2021/10/20 04:21:25;;;;;;;9.50;8.65;;;;;;;14.53;68.71;100144.44;5037718;27;98626;-82
2021/10/20 04:23:51;;;;;;;9.52;7.50;;;;;;;14.48;68.49;100148.13;5027377;28;97090;-82
2021/10/20 04:26:16;;;;;;;9.23;8.38;;;;;;;14.49;68.36;100144.56;5035770;27;98215;-81
2021/10/20 04:28:42;;;;;;;9.45;8.40;;;;;;;14.57;68.29;100146.81;5016528;28;101592;-82
2021/10/20 04:31:07;;;;;;;11.68;8.13;;;;;;;14.55;68.16;100138.13;5033457;27;97958;-81
2021/10/20 04:33:33;;;;;;;9.95;8.43;;;;;;;14.54;68.36;100140.84;5017474;28;96783;-81
2021/10/20 04:35:59;;;;;;;8.93;8.13;;;;;;;14.48;67.91;100121.72;5012324;27;97309;-81
2021/10/20 04:38:24;;;;;;;9.55;8.38;;;;;;;14.52;67.66;100127.75;4995467;28;101660;-82
2021/10/20 04:40:50;;;;;;;8.57;7.80;;;;;;;14.59;67.47;100125.63;5006740;28;98254;-81
2021/10/20 04:43:15;;;;;;;9.98;8.80;;;;;;;14.62;67.38;100118.38;4996189;28;97126;-81
2021/10/20 04:45:41;;;;;;;8.38;7.57;;;;;;;14.60;67.23;100122.03;4993084;28;97175;-81
2021/10/20 04:48:06;;;;;;;8.63;7.82;;;;;;;14.63;67.30;100120.09;5007119;28;101887;-82
2021/10/20 04:50:32;;;;;;;8.43;7.53;;;;;;;14.72;66.88;100129.31;4996588;28;101106;-81
2021/10/20 04:52:57;;;;;;;8.75;7.43;;;;;;;14.70;66.88;100123.25;5012503;27;96767;-81
2021/10/20 04:55:23;;;;;;;9.27;8.32;;;;;;;14.75;67.01;100115.06;4999910;28;96801;-81
2021/10/20 04:57:50;;;;;;;11.13;8.73;;;;;;;14.61;67.30;100121.97;5009573;28;101010;-81
2021/10/20 05:00:16;;;;;;;11.02;8.43;;;;;;;14.58;67.47;100116.00;5010051;28;97961;-81
2021/10/20 05:02:41;;;;;;;9.30;8.40;;;;;;;14.57;67.68;100112.47;5007852;28;96854;-82
2021/10/20 05:05:08;;;;;;;8.73;7.85;;;;;;;14.49;67.59;100114.66;5015198;28;97105;-83
2021/10/20 05:07:42;;;;;;;9.80;8.90;;;;;;;14.45;67.99;100107.81;4992220;28;100317;-83
2021/10/20 05:10:08;;;;;;;9.55;8.65;;;;;;;14.43;67.71;100113.22;4989831;28;100909;-82
2021/10/20 05:12:34;;;;;;;9.55;8.30;;;;;;;14.45;67.59;100105.19;4994373;28;97423;-82
2021/10/20 05:14:59;;;;;;;9.00;8.10;;;;;;;14.42;67.70;100118.56;5025477;27;97977;-83
2021/10/20 05:17:25;;;;;;;9.00;8.10;;;;;;;14.40;67.95;100109.88;4993655;28;101895;-82
2021/10/20 05:19:50;;;;;;;10.70;8.52;;;;;;;14.50;68.07;100109.28;5012647;28;101906;-83
2021/10/20 05:22:16;;;;;;;10.07;8.93;;;;;;;14.45;68.17;100111.31;4980488;28;97233;-83
2021/10/20 05:24:41;;;;;;;9.40;8.50;;;;;;;14.46;67.77;100109.56;4997335;28;97029;-85
2021/10/20 05:27:07;;;;;;;10.60;7.75;;;;;;;14.44;67.88;100092.94;5015032;27;98603;-84
2021/10/20 05:29:32;;;;;;;9.02;8.13;;;;;;;14.36;68.16;100089.84;5008607;27;101403;-82
2021/10/20 05:31:59;;;;;;;10.68;8.75;;;;;;;14.39;68.17;100089.66;5003903;28;96831;-82
2021/10/20 05:34:25;;;;;;;11.15;8.50;;;;;;;14.34;68.09;100096.97;4992907;27;96983;-81
2021/10/20 05:36:51;;;;;;;9.93;8.77;;;;;;;14.38;68.22;100088.81;4980476;27;101447;-81
2021/10/20 05:39:16;;;;;;;10.55;8.68;;;;;;;14.50;67.54;100092.59;5006243;27;101698;-83
2021/10/20 05:41:42;;;;;;;10.27;8.35;;;;;;;14.39;67.97;100087.88;5009865;27;97332;-81
2021/10/20 05:44:07;;;;;;;8.50;7.68;;;;;;;14.40;67.92;100081.69;5001919;27;97518;-84
2021/10/20 05:46:33;;;;;;;8.93;8.02;;;;;;;14.45;67.49;100079.63;4990912;27;101050;-83
2021/10/20 05:48:59;;;;;;;9.13;8.00;;;;;;;14.35;67.85;100088.13;5014515;27;101141;-89
2021/10/20 05:51:25;;;;;;;9.07;8.15;;;;;;;14.35;67.78;100085.50;4998272;27;97322;-88
2021/10/20 05:53:50;;;;;;;11.43;9.15;;;;;;;14.40;67.94;100072.91;5004204;27;97025;-80
2021/10/20 05:56:16;;;;;;;9.88;8.18;;;;;;;14.34;67.73;100079.38;5014566;27;98779;-82
2021/10/20 05:58:42;;;;;;;9.20;8.30;;;;;;;14.25;67.59;100078.06;5026243;27;97829;-82
2021/10/20 06:01:10;;;;;;;9.82;8.18;;;;;;;14.46;67.52;100077.84;5011846;28;96969;-81
2021/10/20 06:03:36;;;;;;;9.82;8.63;;;;;;;14.38;67.45;100064.22;5032974;27;97361;-82
2021/10/20 06:06:01;;;;;;;8.27;7.53;;;;;;;14.38;67.65;100072.13;5014302;27;101166;-83
2021/10/20 06:08:27;;;;;;;9.90;8.10;;;;;;;14.36;67.67;100068.72;5001915;27;101314;-82
2021/10/20 06:10:52;;;;;;;8.55;7.75;;;;;;;14.45;67.20;100071.69;5015049;27;97339;-83
2021/10/20 06:13:18;;;;;;;8.40;7.35;;;;;;;14.58;66.90;100064.00;5013548;27;96915;-83
2021/10/20 06:15:44;;;;;;;9.65;8.02;;;;;;;14.62;66.63;100062.91;5003362;27;101311;-83
2021/10/20 06:18:10;;;;;;;11.10;8.00;;;;;;;14.60;66.83;100063.91;4996134;27;100747;-83
2021/10/20 06:20:35;;;;;;;8.10;7.38;;;;;;;14.57;67.09;100070.22;5008264;27;99165;-82
2021/10/20 06:23:02;;;;;;;8.93;8.02;;;;;;;14.53;66.90;100065.19;4996962;27;98191;-83
2021/10/20 06:25:28;;;;;;;8.48;7.65;;;;;;;14.67;67.07;100073.22;5028059;27;99445;-82
2021/10/20 06:27:54;;;;;;;12.38;7.45;;;;;;;14.68;66.61;100064.34;5009337;27;97527;-83
2021/10/20 06:30:19;;;;;;;8.45;7.65;;;;;;;14.79;66.38;100071.69;5007645;27;97380;-83
2021/10/20 06:32:45;;;;;;;11.35;7.72;;;;;;;14.83;66.12;100068.78;5013662;27;97064;-82
2021/10/20 06:35:11;;;;;;;9.45;8.45;;;;;;;14.88;66.24;100061.47;5012019;27;97897;-82
2021/10/20 06:37:38;;;;;;;12.80;7.57;;;;;;;14.92;65.87;100062.13;5021176;27;101328;-83
2021/10/20 06:40:06;;;;;;;8.85;7.93;;;;;;;14.90;65.92;100050.81;5014819;27;97355;-82
2021/10/20 06:42:32;;;;;;;10.80;8.10;;;;;;;15.02;65.52;100062.47;4996119;27;97258;-84
2021/10/20 06:44:57;;;;;;;8.68;7.18;;;;;;;15.06;65.36;100064.00;5015603;27;101038;-90
2021/10/20 06:47:25;;;;;;;11.80;7.85;;;;;;;15.15;65.14;100050.25;5021486;27;101497;-90
2021/10/20 06:49:52;;;;;;;10.27;7.15;;;;;;;15.24;64.78;100052.41;5024199;27;96697;-89
2021/10/20 06:52:17;;;;;;;10.45;7.45;;;;;;;15.27;64.61;100057.50;5010389;27;97436;-93
2021/10/20 06:54:44;;;;;;;9.73;7.22;;;;;;;15.36;64.31;100056.13;5040062;27;98735;-84
2021/10/20 06:57:10;;;;;;;7.65;6.72;;;;;;;15.45;64.06;100052.94;5018835;27;101439;-90
2021/10/20 06:59:35;;;;;;;8.23;7.45;;;;;;;15.49;63.90;100050.97;5010589;27;96775;-91
2021/10/20 07:02:01;;;;;;;9.40;7.00;;;;;;;15.76;63.09;100038.75;5014635;27;96999;-89
2021/10/20 07:04:27;;;;;;;9.10;7.50;;;;;;;15.80;62.83;100044.75;5034246;27;100678;-89
2021/10/20 07:06:54;;;;;;;8.02;6.78;;;;;;;15.95;62.77;100042.97;5023184;27;100049;-90
2021/10/20 07:09:21;;;;;;;6.90;6.10;;;;;;;16.06;61.89;100038.72;5004516;27;96727;-92
2021/10/20 07:11:47;;;;;;;7.40;5.70;;;;;;;16.22;61.40;100033.31;4994832;27;98096;-91
2021/10/20 07:14:13;;;;;;;7.00;6.28;;;;;;;16.21;61.21;100017.53;5003211;27;100293;-91
2021/10/20 07:16:39;;;;;;;6.43;5.82;;;;;;;16.49;60.56;100020.16;5004110;27;101385;-91
2021/10/20 07:19:07;;;;;;;7.32;6.68;;;;;;;16.69;59.97;100021.50;4997499;27;97606;-90
2021/10/20 07:21:33;;;;;;;9.15;6.55;;;;;;;17.08;59.05;100022.59;5013760;27;96848;-90
2021/10/20 07:23:59;;;;;;;7.00;6.00;;;;;;;17.17;58.81;100024.63;5015048;27;97701;-90
2021/10/20 07:26:24;;;;;;;8.57;5.78;;;;;;;17.42;58.32;100036.25;5014071;27;101213;-83
2021/10/20 07:28:50;;;;;;;6.97;6.25;;;;;;;17.62;57.64;100030.44;5012870;27;96796;-85
2021/10/20 07:31:16;;;;;;;6.85;6.25;;;;;;;17.87;56.97;100029.66;4993968;27;97742;-84
2021/10/20 07:33:42;;;;;;;7.03;6.43;;;;;;;17.98;56.49;100033.38;5014751;27;101545;-87
2021/10/20 07:36:07;;;;;;;7.40;6.53;;;;;;;18.05;56.10;100026.69;4989817;27;100963;-85
2021/10/20 07:38:33;;;;;;;6.55;5.95;;;;;;;17.99;56.33;100022.63;4996211;27;96796;-87
2021/10/20 07:40:58;;;;;;;9.38;5.97;;;;;;;17.99;56.31;100022.63;5010563;27;97312;-87
2021/10/20 07:43:24;;;;;;;7.72;7.00;;;;;;;18.18;55.74;100018.69;5013054;28;101857;-88
2021/10/20 07:45:50;;;;;;;7.07;6.50;;;;;;;18.13;56.00;100019.03;5002206;27;100146;-84
2021/10/20 07:48:15;;;;;;;6.50;5.93;;;;;;;18.33;55.59;100013.16;5037788;27;96760;-90
2021/10/20 07:50:42;;;;;;;6.50;5.88;;;;;;;18.51;55.30;100010.97;5019159;27;96894;-79
2021/10/20 07:53:09;;;;;;;10.77;7.80;;;;;;;18.80;54.46;100007.22;5011319;27;98362;-79
2021/10/20 07:55:34;;;;;;;6.10;5.60;;;;;;;19.10;53.61;100012.91;5009330;27;98377;-79
2021/10/20 07:58:00;;;;;;;7.75;6.95;;;;;;;19.15;53.41;100007.28;5016641;27;98083;-79
2021/10/20 08:00:27;;;;;;;6.22;5.75;;;;;;;19.27;52.80;100009.00;4994983;27;97003;-80
2021/10/20 08:02:53;;;;;;;7.35;6.63;;;;;;;19.53;52.39;100011.50;4999106;27;101259;-78
2021/10/20 08:05:19;;;;;;;8.65;6.47;;;;;;;20.05;51.12;100003.03;5025983;27;97350;-79
2021/10/20 08:07:45;;;;;;;7.68;6.43;;;;;;;20.31;50.47;99997.47;5023086;27;96822;-79
2021/10/20 08:10:16;;;;;;;7.30;5.82;;;;;;;20.47;50.10;99994.41;5005017;27;96812;-79
2021/10/20 08:12:42;;;;;;;9.35;6.97;;;;;;;20.68;49.57;99991.84;5016530;27;101749;-79
2021/10/20 08:15:09;;;;;;;7.78;6.32;;;;;;;20.91;49.15;99988.13;5010813;27;97563;-79
2021/10/20 08:17:35;;;;;;;8.38;6.63;;;;;;;20.52;49.85;99990.44;5015815;27;96779;-89
2021/10/20 08:20:00;;;;;;;6.65;5.95;;;;;;;20.31;50.64;99981.47;5035059;27;97072;-90
2021/10/20 08:22:26;;;;;;;9.35;7.28;;;;;;;20.35;50.46;99975.75;5004555;27;101128;-85
2021/10/20 08:24:52;;;;;;;9.35;7.15;;;;;;;20.62;50.20;99968.34;5049391;27;98079;-86
2021/10/20 08:27:19;;;;;;;7.25;6.55;;;;;;;20.75;49.73;99974.38;5024052;27;96792;-86
2021/10/20 08:29:45;;;;;;;6.38;5.78;;;;;;;20.67;49.61;99968.81;5023671;27;96992;-86
2021/10/20 08:32:11;;;;;;;6.60;5.97;;;;;;;20.85;49.21;99963.78;5019533;27;98231;-85
2021/10/20 08:34:36;;;;;;;7.30;6.13;;;;;;;21.06;49.06;99958.50;5002236;27;101377;-90
2021/10/20 08:37:02;;;;;;;7.20;5.47;;;;;;;21.20;48.47;99961.69;5003964;27;96938;-88
2021/10/20 08:39:29;;;;;;;9.80;5.45;;;;;;;21.11;48.22;99953.63;4997637;27;96763;-89
2021/10/20 08:41:55;;;;;;;6.95;5.70;;;;;;;21.31;47.53;99943.94;5018134;27;101060;-89
2021/10/20 08:44:22;;;;;;;6.38;5.72;;;;;;;21.59;47.09;99945.16;5003838;27;100877;-88
2021/10/20 08:46:49;;;;;;;5.78;5.28;;;;;;;21.72;46.45;99952.94;5021755;27;96835;-88
2021/10/20 08:49:16;;;;;;;6.93;6.07;;;;;;;22.03;45.57;99940.44;5000723;27;97021;-88
2021/10/20 08:51:42;;;;;;;6.43;5.93;;;;;;;22.65;44.47;99935.81;5010016;27;97959;-88
2021/10/20 08:54:08;;;;;;;8.00;5.68;;;;;;;23.28;43.11;99934.44;5001169;27;101367;-85
2021/10/20 08:56:33;;;;;;;6.90;5.65;;;;;;;23.57;42.44;99933.53;5002722;27;96903;-89
2021/10/20 08:59:00;;;;;;;6.35;5.85;;;;;;;23.23;42.40;99927.81;5019120;27;97762;-89
2021/10/20 09:01:26;;;;;;;6.68;6.07;;;;;;;23.01;42.56;99920.97;5009495;28;101293;-89
2021/10/20 09:03:51;;;;;;;7.00;5.82;;;;;;;22.74;42.67;99929.63;5012944;27;97694;-89
2021/10/20 09:06:17;;;;;;;6.40;5.88;;;;;;;23.36;41.88;99909.63;5013402;27;97192;-88
2021/10/20 09:08:47;;;;;;;7.07;6.35;;;;;;;23.24;41.34;99906.28;5016868;27;97568;-88
2021/10/20 09:11:33;;;;;;;7.20;6.53;;;;;;;23.23;41.79;99901.88;5011833;28;100481;-87
2021/10/20 09:13:59;;;;;;;9.30;6.70;;;;;;;22.82;42.31;99911.06;5030010;27;101751;-87
2021/10/20 09:16:25;;;;;;;9.27;6.00;;;;;;;22.60;42.57;99917.50;5017417;27;97501;-88
2021/10/20 09:18:51;;;;;;;6.43;5.68;;;;;;;22.83;42.22;99905.59;5020976;27;97008;-88
2021/10/20 09:21:16;;;;;;;6.53;5.78;;;;;;;23.77;40.55;99901.38;5028174;27;97915;-88
2021/10/20 09:23:42;;;;;;;7.05;6.20;;;;;;;24.49;39.75;99887.13;5016596;28;101029;-87
2021/10/20 09:26:08;;;;;;;6.63;5.43;;;;;;;23.77;39.50;99890.66;5034244;27;96827;-85
2021/10/20 09:28:36;;;;;;;9.07;6.15;;;;;;;23.42;40.59;99890.31;4997996;27;97646;-87
2021/10/20 09:31:04;;;;;;;7.90;6.28;;;;;;;23.02;41.27;99886.00;5018516;27;97531;-87
2021/10/20 09:33:37;;;;;;;8.30;6.20;;;;;;;23.96;39.81;99890.53;4998816;28;101196;-88
2021/10/20 09:36:04;;;;;;;6.72;5.45;;;;;;;24.49;38.58;99880.94;5003041;27;98104;-86
2021/10/20 09:38:33;;;;;;;6.20;5.60;;;;;;;24.79;38.10;99885.94;4993680;28;98145;-89
2021/10/20 09:41:03;;;;;;;8.15;6.20;;;;;;;25.31;37.25;99887.88;5024922;28;98456;-89
2021/10/20 09:43:29;;;;;;;5.80;5.30;;;;;;;25.92;36.28;99880.69;4995281;28;100942;-87
2021/10/20 09:45:55;;;;;;;9.07;6.03;;;;;;;26.31;35.81;99880.13;5029467;27;96756;-89
2021/10/20 09:48:22;;;;;;;6.32;5.82;;;;;;;26.36;35.65;99880.50;5013224;28;96864;-88
2021/10/20 09:51:06;;;;;;;9.35;7.40;;;;;;;25.07;36.82;99880.44;4995230;28;101252;-89
2021/10/20 09:53:34;;;;;;;7.00;6.15;;;;;;;25.73;36.14;99879.03;5003925;28;96984;-88
2021/10/20 09:56:02;;;;;;;6.43;5.82;;;;;;;25.38;36.50;99874.66;5011925;28;96688;-88
2021/10/20 09:58:30;;;;;;;6.13;5.53;;;;;;;25.92;35.87;99873.47;5000189;28;96942;-88
2021/10/20 10:00:56;;;;;;;5.70;5.30;;;;;;;26.24;35.06;99871.03;5010850;28;101267;-90
2021/10/20 10:03:22;;;;;;;5.93;5.43;;;;;;;26.53;34.73;99866.09;4978107;28;100141;-89
2021/10/20 10:05:48;;;;;;;6.47;5.97;;;;;;;26.74;34.64;99862.91;4983187;28;98097;-81
2021/10/20 10:08:13;;;;;;;6.82;5.97;;;;;;;26.73;34.50;99860.38;5008535;28;96795;-84
2021/10/20 10:10:39;;;;;;;9.27;7.40;;;;;;;26.81;34.20;99858.53;5013880;28;101270;-84
2021/10/20 10:13:09;;;;;;;7.20;6.60;;;;;;;26.45;34.31;99849.06;5020999;28;98093;-84
2021/10/20 10:15:39;;;;;;;6.63;5.97;;;;;;;26.03;35.45;99844.56;5028814;27;96964;-79
2021/10/20 10:18:06;;;;;;;11.90;6.45;;;;;;;25.69;35.35;99846.28;4998794;28;98140;-79
2021/10/20 10:20:38;;;;;;;6.70;6.20;;;;;;;25.28;36.00;99835.31;5011200;28;98162;-78
2021/10/20 10:23:07;;;;;;;6.88;6.38;;;;;;;25.61;36.19;99829.28;5014925;28;98549;-80
2021/10/20 10:25:38;;;;;;;6.45;5.95;;;;;;;25.08;35.70;99821.22;5009279;28;97308;-87
2021/10/20 10:28:07;;;;;;;6.70;6.10;;;;;;;25.19;35.92;99821.97;5007249;28;96730;-94
2021/10/20 10:30:45;;;;;;;6.07;5.68;;;;;;;24.95;36.13;99807.38;4997483;27;99813;-90
2021/10/20 10:33:23;;;;;;;6.28;5.65;;;;;;;24.66;36.33;99807.66;4996721;28;100677;-90
2021/10/20 10:36:10;;;;;;;6.30;5.70;;;;;;;24.59;36.40;99798.56;5004627;28;97196;-91
2021/10/20 10:38:50;;;;;;;6.95;5.80;;;;;;;24.29;36.34;99800.59;5008116;28;97134;-93
2021/10/20 10:41:27;;;;;;;7.63;5.75;;;;;;;24.23;37.00;99789.63;4998712;28;100240;-92
2021/10/20 10:44:23;;;;;;;7.25;5.63;;;;;;;24.03;37.86;99787.09;4995916;28;99392;-90
2021/10/20 10:46:53;;;;;;;8.13;5.95;;;;;;;23.97;37.84;99801.13;5010969;28;96745;-91
2021/10/20 10:49:35;;;;;;;6.10;5.13;;;;;;;23.83;37.76;99778.34;5012302;28;96961;-90
2021/10/20 10:52:04;;;;;;;5.72;5.32;;;;;;;23.86;37.37;99772.69;5012707;28;97557;-92
2021/10/20 10:54:38;;;;;;;8.73;5.57;;;;;;;23.75;38.34;99766.69;5012674;28;101285;-92
2021/10/20 10:57:14;;;;;;;6.38;5.30;;;;;;;23.63;37.96;99771.38;5025866;28;96850;-91
2021/10/20 10:59:54;;;;;;;6.40;5.90;;;;;;;23.42;38.39;99755.56;5018911;28;96694;-90
2021/10/20 11:02:38;;;;;;;5.90;5.28;;;;;;;23.39;38.37;99740.63;5013311;28;98102;-90
2021/10/20 11:05:04;;;;;;;6.47;5.65;;;;;;;23.27;38.31;99747.16;4996960;28;97557;-92
2021/10/20 11:07:30;;;;;;;6.07;5.68;;;;;;;23.17;38.73;99735.66;5014046;28;97331;-91
2021/10/20 11:09:57;;;;;;;6.22;5.72;;;;;;;23.16;38.36;99736.66;5016698;28;96892;-90
2021/10/20 11:12:24;;;;;;;10.55;6.13;;;;;;;23.07;38.66;99721.44;5011934;28;98051;-92
2021/10/20 11:14:53;;;;;;;5.90;5.40;;;;;;;22.94;39.16;99705.69;4997961;28;98173;-92
2021/10/20 11:17:19;;;;;;;6.43;5.60;;;;;;;23.06;38.68;99720.63;4997474;28;97124;-91